sensor_id;sensor_type;location;lat;lon;timestamp;pressure;altitude;pressure_sealevel;temperature;humidity
48862;BME280;34681;49.188;-0.374;2023-07-08T00:00:28;100854.34;;;27.13;47.33
48862;BME280;34681;49.188;-0.374;2023-07-08T00:02:53;100839.81;;;27.17;47.13
48862;BME280;34681;49.188;-0.374;2023-07-08T00:05:21;100830.56;;;27.16;46.89
48862;BME280;34681;49.188;-0.374;2023-07-08T00:07:47;100834.63;;;26.80;48.58
48862;BME280;34681;49.188;-0.374;2023-07-08T00:10:19;100834.06;;;26.95;48.02
48862;BME280;34681;49.188;-0.374;2023-07-08T00:12:48;100832.69;;;26.97;47.85
48862;BME280;34681;49.188;-0.374;2023-07-08T00:15:15;100838.19;;;26.75;48.26
48862;BME280;34681;49.188;-0.374;2023-07-08T00:17:42;100851.41;;;26.92;47.95
48862;BME280;34681;49.188;-0.374;2023-07-08T00:20:20;100865.16;;;27.05;47.48
48862;BME280;34681;49.188;-0.374;2023-07-08T00:22:47;100870.00;;;26.81;48.39
48862;BME280;34681;49.188;-0.374;2023-07-08T00:25:18;100870.09;;;26.86;48.15
48862;BME280;34681;49.188;-0.374;2023-07-08T00:27:47;100844.06;;;26.74;48.91
48862;BME280;34681;49.188;-0.374;2023-07-08T00:30:25;100868.81;;;26.77;48.49
48862;BME280;34681;49.188;-0.374;2023-07-08T00:32:51;100842.78;;;26.65;48.74
48862;BME280;34681;49.188;-0.374;2023-07-08T00:35:35;100849.72;;;26.62;48.95
48862;BME280;34681;49.188;-0.374;2023-07-08T00:38:01;100854.47;;;26.62;48.73
48862;BME280;34681;49.188;-0.374;2023-07-08T00:40:31;100844.41;;;26.49;49.17
48862;BME280;34681;49.188;-0.374;2023-07-08T00:43:00;100836.22;;;26.47;49.04
48862;BME280;34681;49.188;-0.374;2023-07-08T00:45:38;100833.19;;;26.49;49.22
48862;BME280;34681;49.188;-0.374;2023-07-08T00:48:29;100828.78;;;26.53;48.87
48862;BME280;34681;49.188;-0.374;2023-07-08T00:50:55;100833.38;;;26.19;50.03
48862;BME280;34681;49.188;-0.374;2023-07-08T00:53:28;100842.16;;;26.11;50.08
48862;BME280;34681;49.188;-0.374;2023-07-08T00:55:58;100844.19;;;26.27;49.58
48862;BME280;34681;49.188;-0.374;2023-07-08T00:58:28;100833.53;;;25.89;50.62
48862;BME280;34681;49.188;-0.374;2023-07-08T01:00:55;100832.56;;;25.25;52.11
48862;BME280;34681;49.188;-0.374;2023-07-08T01:03:23;100854.25;;;25.41;51.78
48862;BME280;34681;49.188;-0.374;2023-07-08T01:05:50;100863.03;;;25.03;53.30
48862;BME280;34681;49.188;-0.374;2023-07-08T01:08:16;100867.41;;;24.69;54.11
48862;BME280;34681;49.188;-0.374;2023-07-08T01:10:49;100881.16;;;24.70;53.76
48862;BME280;34681;49.188;-0.374;2023-07-08T01:13:18;100881.63;;;24.49;54.21
48862;BME280;34681;49.188;-0.374;2023-07-08T01:15:47;100878.59;;;24.69;53.97
48862;BME280;34681;49.188;-0.374;2023-07-08T01:18:16;100874.03;;;24.86;53.24
48862;BME280;34681;49.188;-0.374;2023-07-08T01:20:42;100883.88;;;24.88;53.10
48862;BME280;34681;49.188;-0.374;2023-07-08T01:23:11;100888.13;;;24.79;52.82
48862;BME280;34681;49.188;-0.374;2023-07-08T01:25:37;100888.13;;;24.79;53.46
48862;BME280;34681;49.188;-0.374;2023-07-08T01:28:04;100880.78;;;24.67;53.76
48862;BME280;34681;49.188;-0.374;2023-07-08T01:30:30;100890.97;;;24.61;53.77
48862;BME280;34681;49.188;-0.374;2023-07-08T01:32:59;100897.09;;;24.70;53.29
48862;BME280;34681;49.188;-0.374;2023-07-08T01:35:26;100884.75;;;24.59;53.70
48862;BME280;34681;49.188;-0.374;2023-07-08T01:37:54;100898.00;;;24.33;54.42
48862;BME280;34681;49.188;-0.374;2023-07-08T01:40:29;100886.09;;;24.38;54.23
48862;BME280;34681;49.188;-0.374;2023-07-08T01:42:55;100881.38;;;24.69;53.51
48862;BME280;34681;49.188;-0.374;2023-07-08T01:45:22;100894.84;;;24.60;53.61
48862;BME280;34681;49.188;-0.374;2023-07-08T01:47:53;100901.97;;;24.01;55.13
48862;BME280;34681;49.188;-0.374;2023-07-08T01:50:20;100901.03;;;23.89;55.47
48862;BME280;34681;49.188;-0.374;2023-07-08T01:52:48;100908.91;;;23.73;55.67
48862;BME280;34681;49.188;-0.374;2023-07-08T01:55:14;100916.72;;;23.65;55.90
48862;BME280;34681;49.188;-0.374;2023-07-08T01:57:40;100916.34;;;23.61;56.23
48862;BME280;34681;49.188;-0.374;2023-07-08T02:00:06;100913.09;;;23.33;57.04
48862;BME280;34681;49.188;-0.374;2023-07-08T02:02:31;100923.50;;;23.19;57.31
48862;BME280;34681;49.188;-0.374;2023-07-08T02:04:57;100934.91;;;23.17;57.73
48862;BME280;34681;49.188;-0.374;2023-07-08T02:07:22;100927.47;;;23.36;56.40
48862;BME280;34681;49.188;-0.374;2023-07-08T02:09:47;100936.75;;;23.55;55.60
48862;BME280;34681;49.188;-0.374;2023-07-08T02:12:13;100938.75;;;23.48;55.79
48862;BME280;34681;49.188;-0.374;2023-07-08T02:14:38;100936.41;;;23.45;55.52
48862;BME280;34681;49.188;-0.374;2023-07-08T02:17:03;100928.59;;;23.60;55.54
48862;BME280;34681;49.188;-0.374;2023-07-08T02:19:31;100931.22;;;23.98;54.40
48862;BME280;34681;49.188;-0.374;2023-07-08T02:21:56;100933.59;;;24.20;53.67
48862;BME280;34681;49.188;-0.374;2023-07-08T02:24:21;100941.63;;;24.53;52.53
48862;BME280;34681;49.188;-0.374;2023-07-08T02:26:48;100935.97;;;24.41;52.35
48862;BME280;34681;49.188;-0.374;2023-07-08T02:29:13;100940.19;;;24.80;51.05
48862;BME280;34681;49.188;-0.374;2023-07-08T02:31:39;100940.38;;;24.67;51.29
48862;BME280;34681;49.188;-0.374;2023-07-08T02:34:04;100943.13;;;24.85;50.94
48862;BME280;34681;49.188;-0.374;2023-07-08T02:36:30;100948.72;;;25.04;50.64
48862;BME280;34681;49.188;-0.374;2023-07-08T02:38:55;100973.94;;;25.15;50.25
48862;BME280;34681;49.188;-0.374;2023-07-08T02:41:20;100980.38;;;25.04;50.08
48862;BME280;34681;49.188;-0.374;2023-07-08T02:43:46;100973.84;;;24.92;50.70
48862;BME280;34681;49.188;-0.374;2023-07-08T02:46:11;100962.38;;;25.12;50.17
48862;BME280;34681;49.188;-0.374;2023-07-08T02:48:37;100965.38;;;25.29;49.60
48862;BME280;34681;49.188;-0.374;2023-07-08T02:51:04;100975.47;;;25.30;49.46
48862;BME280;34681;49.188;-0.374;2023-07-08T02:53:30;100979.00;;;25.25;49.46
48862;BME280;34681;49.188;-0.374;2023-07-08T02:55:55;100981.16;;;25.23;49.60
48862;BME280;34681;49.188;-0.374;2023-07-08T02:58:21;100972.63;;;25.18;49.55
48862;BME280;34681;49.188;-0.374;2023-07-08T03:00:56;100961.22;;;25.31;49.16
48862;BME280;34681;49.188;-0.374;2023-07-08T03:03:24;100961.72;;;25.28;49.32
48862;BME280;34681;49.188;-0.374;2023-07-08T03:06:01;100954.59;;;25.56;48.50
48862;BME280;34681;49.188;-0.374;2023-07-08T03:08:28;100965.44;;;25.52;48.48
48862;BME280;34681;49.188;-0.374;2023-07-08T03:10:57;100954.66;;;25.37;48.60
48862;BME280;34681;49.188;-0.374;2023-07-08T03:13:23;100969.22;;;24.98;49.29
48862;BME280;34681;49.188;-0.374;2023-07-08T03:15:49;100971.22;;;24.42;50.68
48862;BME280;34681;49.188;-0.374;2023-07-08T03:18:15;100969.59;;;24.34;50.74
48862;BME280;34681;49.188;-0.374;2023-07-08T03:20:41;100975.72;;;24.43;50.78
48862;BME280;34681;49.188;-0.374;2023-07-08T03:23:06;100972.63;;;24.08;51.51
48862;BME280;34681;49.188;-0.374;2023-07-08T03:25:32;100976.94;;;24.65;50.37
48862;BME280;34681;49.188;-0.374;2023-07-08T03:27:57;100984.63;;;24.88;49.96
48862;BME280;34681;49.188;-0.374;2023-07-08T03:30:23;100985.97;;;25.04;49.49
48862;BME280;34681;49.188;-0.374;2023-07-08T03:32:48;100991.91;;;25.26;49.31
48862;BME280;34681;49.188;-0.374;2023-07-08T03:35:14;100988.63;;;25.29;49.29
48862;BME280;34681;49.188;-0.374;2023-07-08T03:37:41;101007.44;;;25.40;49.03
48862;BME280;34681;49.188;-0.374;2023-07-08T03:40:08;101003.03;;;25.33;49.23
48862;BME280;34681;49.188;-0.374;2023-07-08T03:42:34;101001.59;;;24.93;49.22
48862;BME280;34681;49.188;-0.374;2023-07-08T03:45:00;101000.84;;;24.25;50.73
48862;BME280;34681;49.188;-0.374;2023-07-08T03:47:25;101009.47;;;23.98;51.61
48862;BME280;34681;49.188;-0.374;2023-07-08T03:49:50;101004.19;;;24.58;50.32
48862;BME280;34681;49.188;-0.374;2023-07-08T03:52:16;101020.78;;;24.90;49.54
48862;BME280;34681;49.188;-0.374;2023-07-08T03:54:42;101012.00;;;25.05;49.19
48862;BME280;34681;49.188;-0.374;2023-07-08T03:57:07;101008.56;;;25.21;48.87
48862;BME280;34681;49.188;-0.374;2023-07-08T03:59:33;101009.47;;;25.33;48.61
48862;BME280;34681;49.188;-0.374;2023-07-08T04:01:58;101012.72;;;25.30;48.54
48862;BME280;34681;49.188;-0.374;2023-07-08T04:04:23;101006.66;;;25.33;48.46
48862;BME280;34681;49.188;-0.374;2023-07-08T04:06:49;101002.72;;;25.23;48.79
48862;BME280;34681;49.188;-0.374;2023-07-08T04:09:15;101002.50;;;25.24;48.74
48862;BME280;34681;49.188;-0.374;2023-07-08T04:11:41;100999.91;;;25.23;48.78
48862;BME280;34681;49.188;-0.374;2023-07-08T04:14:08;101000.31;;;25.26;48.72
48862;BME280;34681;49.188;-0.374;2023-07-08T04:19:10;101009.75;;;25.43;48.30
48862;BME280;34681;49.188;-0.374;2023-07-08T04:21:40;101019.16;;;25.49;48.57
48862;BME280;34681;49.188;-0.374;2023-07-08T04:24:05;101016.81;;;25.46;48.58
48862;BME280;34681;49.188;-0.374;2023-07-08T04:26:31;101024.50;;;25.51;48.33
48862;BME280;34681;49.188;-0.374;2023-07-08T04:29:01;101035.72;;;25.62;48.10
48862;BME280;34681;49.188;-0.374;2023-07-08T04:31:26;101038.69;;;25.67;48.32
48862;BME280;34681;49.188;-0.374;2023-07-08T04:33:51;101025.22;;;25.76;48.25
48862;BME280;34681;49.188;-0.374;2023-07-08T04:36:17;101030.03;;;25.69;48.47
48862;BME280;34681;49.188;-0.374;2023-07-08T04:38:42;101028.88;;;25.76;48.34
48862;BME280;34681;49.188;-0.374;2023-07-08T04:41:11;101037.63;;;25.80;48.60
48862;BME280;34681;49.188;-0.374;2023-07-08T04:43:37;101035.09;;;25.79;48.66
48862;BME280;34681;49.188;-0.374;2023-07-08T04:46:17;101029.19;;;25.68;48.70
48862;BME280;34681;49.188;-0.374;2023-07-08T04:48:44;101042.44;;;25.31;49.45
48862;BME280;34681;49.188;-0.374;2023-07-08T04:51:10;101053.28;;;25.58;48.98
48862;BME280;34681;49.188;-0.374;2023-07-08T04:53:36;101060.31;;;25.79;48.57
48862;BME280;34681;49.188;-0.374;2023-07-08T04:56:01;101063.50;;;25.64;49.02
48862;BME280;34681;49.188;-0.374;2023-07-08T04:58:27;101067.84;;;25.78;48.53
48862;BME280;34681;49.188;-0.374;2023-07-08T05:00:52;101065.19;;;25.83;48.68
48862;BME280;34681;49.188;-0.374;2023-07-08T05:03:17;101068.25;;;25.63;49.05
48862;BME280;34681;49.188;-0.374;2023-07-08T05:05:43;101060.41;;;25.24;50.25
48862;BME280;34681;49.188;-0.374;2023-07-08T05:08:08;101067.47;;;25.44;49.91
48862;BME280;34681;49.188;-0.374;2023-07-08T05:10:34;101065.94;;;25.90;49.26
48862;BME280;34681;49.188;-0.374;2023-07-08T05:13:00;101073.97;;;26.40;48.10
48862;BME280;34681;49.188;-0.374;2023-07-08T05:15:25;101076.78;;;26.40;48.24
48862;BME280;34681;49.188;-0.374;2023-07-08T05:17:51;101070.53;;;26.38;48.26
48862;BME280;34681;49.188;-0.374;2023-07-08T05:20:17;101085.97;;;26.17;48.29
48862;BME280;34681;49.188;-0.374;2023-07-08T05:22:44;101081.34;;;26.23;48.51
48862;BME280;34681;49.188;-0.374;2023-07-08T05:25:11;101082.47;;;26.33;48.31
48862;BME280;34681;49.188;-0.374;2023-07-08T05:27:36;101079.44;;;26.47;48.17
48862;BME280;34681;49.188;-0.374;2023-07-08T05:30:03;101093.06;;;28.44;46.03
48862;BME280;34681;49.188;-0.374;2023-07-08T05:32:29;101095.28;;;30.49;41.79
48862;BME280;34681;49.188;-0.374;2023-07-08T05:34:55;101089.72;;;31.75;39.52
48862;BME280;34681;49.188;-0.374;2023-07-08T05:37:20;101090.09;;;32.65;37.04
48862;BME280;34681;49.188;-0.374;2023-07-08T05:39:51;101080.47;;;32.51;36.50
48862;BME280;34681;49.188;-0.374;2023-07-08T05:42:16;101093.22;;;33.59;35.31
48862;BME280;34681;49.188;-0.374;2023-07-08T05:44:41;101083.47;;;33.15;34.81
48862;BME280;34681;49.188;-0.374;2023-07-08T05:47:07;101089.50;;;33.63;34.38
48862;BME280;34681;49.188;-0.374;2023-07-08T05:49:32;101100.31;;;34.11;33.62
48862;BME280;34681;49.188;-0.374;2023-07-08T05:51:58;101103.81;;;33.92;33.50
48862;BME280;34681;49.188;-0.374;2023-07-08T05:54:27;101099.41;;;33.71;33.80
48862;BME280;34681;49.188;-0.374;2023-07-08T05:56:52;101102.47;;;34.87;32.66
48862;BME280;34681;49.188;-0.374;2023-07-08T05:59:17;101099.50;;;35.69;31.10
48862;BME280;34681;49.188;-0.374;2023-07-08T06:01:43;101105.16;;;36.77;29.68
48862;BME280;34681;49.188;-0.374;2023-07-08T06:04:08;101118.72;;;37.81;28.63
48862;BME280;34681;49.188;-0.374;2023-07-08T06:06:33;101119.00;;;38.30;28.05
48862;BME280;34681;49.188;-0.374;2023-07-08T06:08:59;101128.50;;;39.15;26.98
48862;BME280;34681;49.188;-0.374;2023-07-08T06:11:25;101127.19;;;39.78;25.46
48862;BME280;34681;49.188;-0.374;2023-07-08T06:13:50;101136.44;;;39.75;26.05
48862;BME280;34681;49.188;-0.374;2023-07-08T06:16:16;101143.56;;;38.53;26.83
48862;BME280;34681;49.188;-0.374;2023-07-08T06:18:41;101143.00;;;36.12;30.47
48862;BME280;34681;49.188;-0.374;2023-07-08T06:21:06;101148.22;;;35.14;31.70
48862;BME280;34681;49.188;-0.374;2023-07-08T06:23:32;101153.09;;;38.12;29.38
48862;BME280;34681;49.188;-0.374;2023-07-08T06:25:57;101150.00;;;40.52;26.56
48862;BME280;34681;49.188;-0.374;2023-07-08T06:28:23;101150.88;;;41.85;24.83
48862;BME280;34681;49.188;-0.374;2023-07-08T06:30:49;101160.53;;;42.84;23.39
48862;BME280;34681;49.188;-0.374;2023-07-08T06:33:14;101173.34;;;43.32;22.55
48862;BME280;34681;49.188;-0.374;2023-07-08T06:35:40;101165.22;;;43.95;22.02
48862;BME280;34681;49.188;-0.374;2023-07-08T06:38:06;101168.13;;;44.36;21.40
48862;BME280;34681;49.188;-0.374;2023-07-08T06:40:33;101171.94;;;43.51;21.58
48862;BME280;34681;49.188;-0.374;2023-07-08T06:42:58;101160.03;;;42.49;23.60
48862;BME280;34681;49.188;-0.374;2023-07-08T06:45:24;101152.84;;;40.35;25.17
48862;BME280;34681;49.188;-0.374;2023-07-08T06:47:50;101167.53;;;38.66;27.09
48862;BME280;34681;49.188;-0.374;2023-07-08T06:50:15;101172.66;;;37.42;28.66
48862;BME280;34681;49.188;-0.374;2023-07-08T06:52:41;101159.31;;;36.44;29.99
48862;BME280;34681;49.188;-0.374;2023-07-08T06:55:08;101157.41;;;35.78;31.49
48862;BME280;34681;49.188;-0.374;2023-07-08T06:57:34;101164.09;;;34.91;32.69
48862;BME280;34681;49.188;-0.374;2023-07-08T07:00:00;101156.72;;;34.56;33.01
48862;BME280;34681;49.188;-0.374;2023-07-08T07:02:26;101157.09;;;34.05;33.96
48862;BME280;34681;49.188;-0.374;2023-07-08T07:04:51;101156.59;;;33.88;34.91
48862;BME280;34681;49.188;-0.374;2023-07-08T07:07:17;101154.69;;;33.73;34.66
48862;BME280;34681;49.188;-0.374;2023-07-08T07:09:42;101159.66;;;33.42;35.65
48862;BME280;34681;49.188;-0.374;2023-07-08T07:12:08;101162.88;;;32.80;36.56
48862;BME280;34681;49.188;-0.374;2023-07-08T07:14:34;101161.78;;;32.55;37.02
48862;BME280;34681;49.188;-0.374;2023-07-08T07:16:59;101172.81;;;32.41;37.75
48862;BME280;34681;49.188;-0.374;2023-07-08T07:19:25;101178.13;;;32.23;38.19
48862;BME280;34681;49.188;-0.374;2023-07-08T07:21:51;101175.28;;;32.18;38.67
48862;BME280;34681;49.188;-0.374;2023-07-08T07:24:17;101174.03;;;31.73;39.35
48862;BME280;34681;49.188;-0.374;2023-07-08T07:26:42;101160.22;;;31.24;40.30
48862;BME280;34681;49.188;-0.374;2023-07-08T07:29:07;101159.41;;;31.28;40.14
48862;BME280;34681;49.188;-0.374;2023-07-08T07:31:33;101162.97;;;31.14;40.71
48862;BME280;34681;49.188;-0.374;2023-07-08T07:33:59;101167.13;;;31.01;41.05
48862;BME280;34681;49.188;-0.374;2023-07-08T07:36:26;101170.47;;;30.61;42.20
48862;BME280;34681;49.188;-0.374;2023-07-08T07:38:51;101178.13;;;30.33;42.84
48862;BME280;34681;49.188;-0.374;2023-07-08T07:41:16;101183.44;;;30.57;42.32
48862;BME280;34681;49.188;-0.374;2023-07-08T07:43:42;101186.47;;;30.50;42.30
48862;BME280;34681;49.188;-0.374;2023-07-08T07:46:07;101192.41;;;30.48;42.52
48862;BME280;34681;49.188;-0.374;2023-07-08T07:48:33;101184.91;;;30.32;42.30
48862;BME280;34681;49.188;-0.374;2023-07-08T07:50:59;101180.16;;;30.38;42.13
48862;BME280;34681;49.188;-0.374;2023-07-08T07:53:25;101177.09;;;30.44;42.69
48862;BME280;34681;49.188;-0.374;2023-07-08T07:56:01;101174.66;;;29.99;42.60
48862;BME280;34681;49.188;-0.374;2023-07-08T07:58:27;101179.47;;;30.04;43.39
48862;BME280;34681;49.188;-0.374;2023-07-08T08:00:52;101173.03;;;30.30;42.59
48862;BME280;34681;49.188;-0.374;2023-07-08T08:03:19;101176.09;;;29.36;44.19
48862;BME280;34681;49.188;-0.374;2023-07-08T08:05:44;101175.25;;;29.35;44.39
48862;BME280;34681;49.188;-0.374;2023-07-08T08:08:10;101162.28;;;28.79;45.38
48862;BME280;34681;49.188;-0.374;2023-07-08T08:10:35;101159.16;;;28.13;47.15
48862;BME280;34681;49.188;-0.374;2023-07-08T08:13:02;101160.25;;;29.30;45.11
48862;BME280;34681;49.188;-0.374;2023-07-08T08:15:27;101170.81;;;29.40;43.99
48862;BME280;34681;49.188;-0.374;2023-07-08T08:17:53;101158.75;;;29.22;44.47
48862;BME280;34681;49.188;-0.374;2023-07-08T08:20:20;101149.34;;;28.44;46.10
48862;BME280;34681;49.188;-0.374;2023-07-08T08:22:46;101136.63;;;28.42;46.46
48862;BME280;34681;49.188;-0.374;2023-07-08T08:25:13;101124.59;;;28.30;46.48
48862;BME280;34681;49.188;-0.374;2023-07-08T08:27:39;101115.03;;;27.68;48.47
48862;BME280;34681;49.188;-0.374;2023-07-08T08:30:05;101112.56;;;27.32;49.35
48862;BME280;34681;49.188;-0.374;2023-07-08T08:32:31;101188.75;;;27.87;48.33
48862;BME280;34681;49.188;-0.374;2023-07-08T08:34:56;101224.63;;;28.88;46.50
48862;BME280;34681;49.188;-0.374;2023-07-08T08:37:21;101214.59;;;29.47;45.81
48862;BME280;34681;49.188;-0.374;2023-07-08T08:39:47;101204.38;;;29.41;45.05
48862;BME280;34681;49.188;-0.374;2023-07-08T08:42:32;101188.31;;;28.52;46.18
48862;BME280;34681;49.188;-0.374;2023-07-08T08:44:59;101173.28;;;28.02;46.92
48862;BME280;34681;49.188;-0.374;2023-07-08T08:47:35;101165.09;;;27.71;48.45
48862;BME280;34681;49.188;-0.374;2023-07-08T08:52:50;101173.91;;;28.49;45.49
48862;BME280;34681;49.188;-0.374;2023-07-08T08:55:16;101177.72;;;28.43;46.03
48862;BME280;34681;49.188;-0.374;2023-07-08T08:57:50;101172.88;;;28.72;45.88
48862;BME280;34681;49.188;-0.374;2023-07-08T09:00:24;101184.91;;;29.40;44.45
48862;BME280;34681;49.188;-0.374;2023-07-08T09:02:59;101193.72;;;29.26;44.05
48862;BME280;34681;49.188;-0.374;2023-07-08T09:05:27;101193.53;;;29.33;43.52
48862;BME280;34681;49.188;-0.374;2023-07-08T09:08:13;101190.53;;;29.01;44.58
48862;BME280;34681;49.188;-0.374;2023-07-08T09:13:40;101210.06;;;28.57;45.64
48862;BME280;34681;49.188;-0.374;2023-07-08T09:19:06;101237.41;;;29.07;44.94
48862;BME280;34681;49.188;-0.374;2023-07-08T09:21:41;101238.97;;;29.20;44.05
48862;BME280;34681;49.188;-0.374;2023-07-08T09:24:18;101249.53;;;29.07;43.92
48862;BME280;34681;49.188;-0.374;2023-07-08T09:26:46;101251.69;;;28.55;45.17
48862;BME280;34681;49.188;-0.374;2023-07-08T09:29:13;101240.25;;;28.62;45.13
48862;BME280;34681;49.188;-0.374;2023-07-08T09:31:39;101242.97;;;28.40;44.93
48862;BME280;34681;49.188;-0.374;2023-07-08T09:34:15;101234.91;;;28.03;46.20
48862;BME280;34681;49.188;-0.374;2023-07-08T09:36:44;101231.50;;;27.49;46.26
48862;BME280;34681;49.188;-0.374;2023-07-08T09:39:15;101253.75;;;27.27;46.96
48862;BME280;34681;49.188;-0.374;2023-07-08T09:41:42;101273.34;;;27.97;45.67
48862;BME280;34681;49.188;-0.374;2023-07-08T09:44:21;101279.94;;;28.77;44.50
48862;BME280;34681;49.188;-0.374;2023-07-08T09:46:52;101270.78;;;28.98;43.72
48862;BME280;34681;49.188;-0.374;2023-07-08T09:49:31;101242.38;;;28.54;44.66
48862;BME280;34681;49.188;-0.374;2023-07-08T09:51:57;101233.94;;;27.69;46.19
48862;BME280;34681;49.188;-0.374;2023-07-08T09:54:24;101209.47;;;27.69;46.38
48862;BME280;34681;49.188;-0.374;2023-07-08T09:57:05;101197.00;;;27.65;47.06
48862;BME280;34681;49.188;-0.374;2023-07-08T09:59:46;101206.28;;;27.66;47.83
48862;BME280;34681;49.188;-0.374;2023-07-08T10:04:59;101215.66;;;27.08;47.68
48862;BME280;34681;49.188;-0.374;2023-07-08T10:07:28;101225.28;;;27.35;47.35
48862;BME280;34681;49.188;-0.374;2023-07-08T10:09:57;101235.31;;;27.20;48.14
48862;BME280;34681;49.188;-0.374;2023-07-08T10:12:23;101239.34;;;27.24;48.31
48862;BME280;34681;49.188;-0.374;2023-07-08T10:14:58;101221.25;;;27.43;48.36
48862;BME280;34681;49.188;-0.374;2023-07-08T10:17:24;101214.91;;;27.12;48.44
48862;BME280;34681;49.188;-0.374;2023-07-08T10:19:50;101234.78;;;26.87;49.19
48862;BME280;34681;49.188;-0.374;2023-07-08T10:25:02;101234.56;;;27.01;49.15
48862;BME280;34681;49.188;-0.374;2023-07-08T10:27:40;101223.56;;;26.99;49.07
48862;BME280;34681;49.188;-0.374;2023-07-08T10:30:24;101216.03;;;27.23;47.72
48862;BME280;34681;49.188;-0.374;2023-07-08T10:36:16;101250.78;;;27.69;47.43
48862;BME280;34681;49.188;-0.374;2023-07-08T10:41:30;101298.09;;;27.49;47.00
48862;BME280;34681;49.188;-0.374;2023-07-08T10:44:05;101306.41;;;27.32;47.22
48862;BME280;34681;49.188;-0.374;2023-07-08T10:46:46;101324.72;;;27.34;47.61
48862;BME280;34681;49.188;-0.374;2023-07-08T10:49:31;101359.16;;;27.88;46.80
48862;BME280;34681;49.188;-0.374;2023-07-08T10:52:05;101371.47;;;28.22;46.24
48862;BME280;34681;49.188;-0.374;2023-07-08T11:00:38;101359.03;;;27.60;47.16
48862;BME280;34681;49.188;-0.374;2023-07-08T11:05:46;101335.09;;;27.34;48.50
48862;BME280;34681;49.188;-0.374;2023-07-08T11:08:32;101320.66;;;27.54;48.17
48862;BME280;34681;49.188;-0.374;2023-07-08T11:11:03;101296.00;;;28.19;46.59
48862;BME280;34681;49.188;-0.374;2023-07-08T11:13:34;101278.19;;;28.14;46.34
48862;BME280;34681;49.188;-0.374;2023-07-08T11:16:09;101296.00;;;28.31;45.25
48862;BME280;34681;49.188;-0.374;2023-07-08T11:18:42;101308.94;;;27.92;46.02
48862;BME280;34681;49.188;-0.374;2023-07-08T11:21:28;101317.06;;;28.45;45.06
48862;BME280;34681;49.188;-0.374;2023-07-08T11:24:02;101321.00;;;28.73;44.08
48862;BME280;34681;49.188;-0.374;2023-07-08T11:26:39;101340.25;;;28.93;44.27
48862;BME280;34681;49.188;-0.374;2023-07-08T11:29:16;101335.88;;;29.69;43.41
48862;BME280;34681;49.188;-0.374;2023-07-08T11:31:44;101324.88;;;30.55;42.07
48862;BME280;34681;49.188;-0.374;2023-07-08T11:34:11;101326.50;;;30.51;41.52
48862;BME280;34681;49.188;-0.374;2023-07-08T11:36:37;101336.03;;;30.67;41.19
48862;BME280;34681;49.188;-0.374;2023-07-08T11:41:53;101349.56;;;29.99;42.73
48862;BME280;34681;49.188;-0.374;2023-07-08T11:44:28;101366.13;;;28.78;44.55
48862;BME280;34681;49.188;-0.374;2023-07-08T11:46:55;101385.19;;;27.60;46.58
48862;BME280;34681;49.188;-0.374;2023-07-08T11:49:20;101399.81;;;28.21;45.57
48862;BME280;34681;49.188;-0.374;2023-07-08T11:51:46;101434.59;;;28.67;45.13
48862;BME280;34681;49.188;-0.374;2023-07-08T11:54:39;101438.22;;;28.79;45.66
48862;BME280;34681;49.188;-0.374;2023-07-08T11:57:23;101420.75;;;28.37;48.01
48862;BME280;34681;49.188;-0.374;2023-07-08T12:00:10;101367.03;;;28.26;49.70
48862;BME280;34681;49.188;-0.374;2023-07-08T12:02:51;101299.91;;;27.43;52.53
48862;BME280;34681;49.188;-0.374;2023-07-08T12:05:17;101306.13;;;27.45;53.07
48862;BME280;34681;49.188;-0.374;2023-07-08T12:07:47;101320.56;;;27.72;53.08
48862;BME280;34681;49.188;-0.374;2023-07-08T12:10:26;101336.09;;;28.26;53.41
48862;BME280;34681;49.188;-0.374;2023-07-08T12:12:52;101336.34;;;27.73;51.93
48862;BME280;34681;49.188;-0.374;2023-07-08T12:15:23;101322.13;;;27.80;54.63
48862;BME280;34681;49.188;-0.374;2023-07-08T12:17:51;101316.94;;;28.12;52.45
48862;BME280;34681;49.188;-0.374;2023-07-08T12:20:23;101311.97;;;29.04;53.19
48862;BME280;34681;49.188;-0.374;2023-07-08T12:22:49;101315.78;;;30.04;52.63
48862;BME280;34681;49.188;-0.374;2023-07-08T12:25:18;101334.16;;;30.77;52.15
48862;BME280;34681;49.188;-0.374;2023-07-08T12:27:45;101326.13;;;31.23;51.07
48862;BME280;34681;49.188;-0.374;2023-07-08T12:30:12;101328.22;;;31.38;50.34
48862;BME280;34681;49.188;-0.374;2023-07-08T12:32:39;101334.75;;;31.44;49.60
48862;BME280;34681;49.188;-0.374;2023-07-08T12:35:07;101328.13;;;31.65;47.00
48862;BME280;34681;49.188;-0.374;2023-07-08T12:37:39;101338.75;;;31.48;44.89
48862;BME280;34681;49.188;-0.374;2023-07-08T12:40:09;101342.59;;;30.51;45.30
48862;BME280;34681;49.188;-0.374;2023-07-08T12:42:35;101341.75;;;30.28;46.82
48862;BME280;34681;49.188;-0.374;2023-07-08T12:45:00;101343.88;;;30.16;48.28
48862;BME280;34681;49.188;-0.374;2023-07-08T12:47:26;101343.81;;;30.33;48.02
48862;BME280;34681;49.188;-0.374;2023-07-08T12:49:51;101343.09;;;30.69;48.11
48862;BME280;34681;49.188;-0.374;2023-07-08T12:52:20;101343.19;;;31.07;47.47
48862;BME280;34681;49.188;-0.374;2023-07-08T12:54:46;101332.81;;;31.12;47.27
48862;BME280;34681;49.188;-0.374;2023-07-08T12:57:11;101340.03;;;31.30;47.27
48862;BME280;34681;49.188;-0.374;2023-07-08T12:59:38;101346.22;;;31.64;46.51
48862;BME280;34681;49.188;-0.374;2023-07-08T13:02:07;101337.41;;;31.60;46.09
48862;BME280;34681;49.188;-0.374;2023-07-08T13:04:35;101332.94;;;31.27;44.73
48862;BME280;34681;49.188;-0.374;2023-07-08T13:07:02;101329.88;;;31.34;44.78
48862;BME280;34681;49.188;-0.374;2023-07-08T13:09:37;101321.06;;;31.68;45.38
48862;BME280;34681;49.188;-0.374;2023-07-08T13:12:10;101332.63;;;32.03;45.64
48862;BME280;34681;49.188;-0.374;2023-07-08T13:14:37;101333.31;;;31.04;45.84
48862;BME280;34681;49.188;-0.374;2023-07-08T13:17:14;101334.75;;;31.39;46.38
48862;BME280;34681;49.188;-0.374;2023-07-08T13:19:41;101325.78;;;31.99;45.30